createdAt,value
2018-08-19T00:01:27.845Z,20.16
2018-08-19T00:03:56.266Z,20.14
2018-08-19T00:06:25.081Z,20.22
2018-08-19T00:08:56.454Z,20.19
2018-08-19T00:11:25.102Z,20.12
2018-08-19T00:13:53.561Z,20.07
2018-08-19T00:16:22.009Z,20.03
2018-08-19T00:18:50.441Z,20.07
2018-08-19T00:21:18.945Z,20.10
2018-08-19T00:23:49.288Z,20.13
2018-08-19T00:26:17.814Z,20.14
2018-08-19T00:28:46.336Z,20.11
2018-08-19T00:31:14.820Z,20.06
2018-08-19T00:33:43.274Z,20.00
2018-08-19T00:36:24.825Z,19.99
2018-08-19T00:38:53.837Z,19.99
2018-08-19T00:41:22.280Z,19.93
2018-08-19T00:43:50.905Z,19.88
2018-08-19T00:46:29.164Z,19.84
2018-08-19T00:48:58.404Z,19.82
2018-08-19T00:51:27.539Z,19.82
2018-08-19T00:53:56.413Z,19.83
2018-08-19T00:56:25.909Z,19.74
2018-08-19T00:58:54.505Z,19.70
2018-08-19T01:01:35.490Z,19.68
2018-08-19T01:04:05.370Z,19.66
2018-08-19T01:06:40.565Z,19.64
2018-08-19T01:09:09.713Z,19.58
2018-08-19T01:11:39.766Z,19.56
2018-08-19T01:14:10.479Z,19.54
2018-08-19T01:16:39.062Z,19.52
2018-08-19T01:19:08.357Z,19.46
2018-08-19T01:21:36.933Z,19.41
2018-08-19T01:24:08.754Z,19.44
2018-08-19T01:26:39.494Z,19.44
2018-08-19T01:29:09.351Z,19.47
2018-08-19T01:31:38.027Z,19.55
2018-08-19T01:34:07.657Z,19.66
2018-08-19T01:36:36.137Z,19.70
2018-08-19T01:39:07.750Z,19.82
2018-08-19T01:41:36.876Z,19.92
2018-08-19T01:44:14.882Z,20.05
2018-08-19T01:46:48.025Z,20.17
2018-08-19T01:49:16.669Z,20.21
2018-08-19T01:51:45.573Z,20.25
2018-08-19T01:54:19.367Z,20.36
2018-08-19T01:56:51.873Z,20.38
2018-08-19T01:59:20.392Z,20.38
2018-08-19T02:01:51.062Z,20.35
2018-08-19T02:04:20.137Z,20.34
2018-08-19T02:06:48.576Z,20.33
2018-08-19T02:09:18.245Z,20.27
2018-08-19T02:11:48.650Z,20.21
2018-08-19T02:14:17.982Z,20.16
2018-08-19T02:16:47.116Z,20.13
2018-08-19T02:19:15.661Z,20.13
2018-08-19T02:21:44.733Z,20.12
2018-08-19T02:24:13.744Z,20.16
2018-08-19T02:26:42.289Z,20.16
2018-08-19T02:29:27.385Z,20.18
2018-08-19T02:32:01.905Z,20.24
2018-08-19T02:34:32.374Z,20.25
2018-08-19T02:37:08.121Z,20.24
2018-08-19T02:39:39.768Z,20.18
2018-08-19T02:42:26.689Z,20.16
2018-08-19T02:45:02.171Z,20.15
2018-08-19T02:47:31.089Z,20.14
2018-08-19T02:49:59.586Z,20.12
2018-08-19T02:52:29.233Z,20.05
2018-08-19T02:54:59.627Z,19.96
2018-08-19T02:57:29.224Z,19.93
2018-08-19T02:59:58.645Z,19.90
2018-08-19T03:02:28.855Z,19.84
2018-08-19T03:04:58.449Z,19.79
2018-08-19T03:07:29.554Z,19.74
2018-08-19T03:10:05.562Z,19.68
2018-08-19T03:12:34.338Z,19.67
2018-08-19T03:15:03.065Z,19.62
2018-08-19T03:17:32.418Z,19.62
2018-08-19T03:20:01.449Z,19.55
2018-08-19T03:22:30.622Z,19.50
2018-08-19T03:25:00.406Z,19.42
2018-08-19T03:27:28.854Z,19.35
2018-08-19T03:30:02.611Z,19.28
2018-08-19T03:32:31.054Z,19.24
2018-08-19T03:35:07.691Z,19.28
2018-08-19T03:37:37.388Z,19.24
2018-08-19T03:40:06.778Z,19.25
2018-08-19T03:42:35.258Z,19.30
2018-08-19T03:45:09.056Z,19.19
2018-08-19T03:47:37.508Z,19.15
2018-08-19T03:50:11.233Z,19.20
2018-08-19T03:52:41.325Z,19.14
2018-08-19T03:55:14.014Z,19.08
2018-08-19T03:57:42.469Z,19.00
2018-08-19T04:00:13.313Z,18.88
2018-08-19T04:02:41.773Z,18.78
2018-08-19T04:05:10.417Z,18.70
2018-08-19T04:07:38.885Z,18.65
2018-08-19T04:10:07.374Z,18.61
2018-08-19T04:12:35.803Z,18.56
2018-08-19T04:15:06.200Z,18.53
2018-08-19T04:17:34.826Z,18.54
2018-08-19T04:20:03.487Z,18.60
2018-08-19T04:22:31.994Z,18.57
2018-08-19T04:25:00.594Z,18.57
2018-08-19T04:27:28.998Z,18.64
2018-08-19T04:29:57.499Z,18.75
2018-08-19T04:32:31.741Z,18.81
2018-08-19T04:35:01.062Z,18.89
2018-08-19T04:37:30.011Z,18.99
2018-08-19T04:39:59.706Z,19.12
2018-08-19T04:42:28.169Z,19.20
2018-08-19T04:44:56.626Z,19.29
2018-08-19T04:47:34.846Z,19.32
2018-08-19T04:50:03.349Z,19.38
2018-08-19T04:52:33.037Z,19.41
2018-08-19T04:55:01.621Z,19.50
2018-08-19T04:57:30.037Z,19.56
2018-08-19T04:59:58.660Z,19.67
2018-08-19T05:02:27.376Z,19.78
2018-08-19T05:04:55.866Z,19.84
2018-08-19T05:07:24.311Z,19.92
2018-08-19T05:09:52.796Z,19.93
2018-08-19T05:12:21.318Z,19.95
2018-08-19T05:14:49.836Z,19.95
2018-08-19T05:17:18.241Z,19.99
2018-08-19T05:19:46.705Z,20.09
2018-08-19T05:22:15.722Z,20.12
2018-08-19T05:24:45.729Z,20.10
2018-08-19T05:27:14.893Z,20.17
2018-08-19T05:29:43.297Z,20.21
2018-08-19T05:32:14.191Z,20.26
2018-08-19T05:34:42.925Z,20.38
2018-08-19T05:37:11.546Z,20.44
2018-08-19T05:39:45.121Z,20.52
2018-08-19T05:42:14.214Z,20.54
2018-08-19T05:44:43.291Z,20.58
2018-08-19T05:47:15.403Z,20.64
2018-08-19T05:49:44.965Z,20.66
2018-08-19T05:52:20.369Z,20.79
2018-08-19T05:55:03.585Z,20.83
2018-08-19T05:57:34.309Z,20.84
2018-08-19T06:00:07.995Z,20.88
2018-08-19T06:02:42.507Z,20.94
2018-08-19T06:05:11.030Z,20.96
2018-08-19T06:07:39.615Z,21.02
2018-08-19T06:10:08.337Z,21.08
2018-08-19T06:12:36.766Z,21.25
2018-08-19T06:15:05.870Z,21.30
2018-08-19T06:17:34.418Z,21.40
2018-08-19T06:20:02.987Z,21.52
2018-08-19T06:22:39.593Z,21.60
2018-08-19T06:25:08.257Z,21.66
2018-08-19T06:27:48.933Z,21.77
2018-08-19T06:30:18.331Z,21.80
2018-08-19T06:32:47.093Z,21.72
2018-08-19T06:35:15.711Z,21.59
2018-08-19T06:37:44.266Z,21.44
2018-08-19T06:40:14.822Z,21.44
2018-08-19T06:42:43.427Z,21.31
2018-08-19T06:45:12.790Z,21.37
2018-08-19T06:47:41.510Z,21.53
2018-08-19T06:50:21.026Z,21.59
2018-08-19T06:52:50.818Z,21.60
2018-08-19T06:55:19.875Z,21.72
2018-08-19T06:57:48.484Z,21.87
2018-08-19T07:00:24.187Z,21.95
2018-08-19T07:02:52.993Z,22.12
2018-08-19T07:05:21.844Z,22.37
2018-08-19T07:07:50.329Z,22.55
2018-08-19T07:10:37.238Z,22.70
2018-08-19T07:13:10.427Z,22.74
2018-08-19T07:15:40.363Z,22.87
2018-08-19T07:18:10.794Z,22.97
2018-08-19T07:20:40.718Z,23.02
2018-08-19T07:23:09.925Z,23.10
2018-08-19T07:25:39.503Z,23.06
2018-08-19T07:28:09.649Z,23.12
2018-08-19T07:30:38.493Z,23.24
2018-08-19T07:33:07.241Z,23.40
2018-08-19T07:35:35.757Z,23.45
2018-08-19T07:38:04.488Z,23.29
2018-08-19T07:40:33.250Z,23.42
2018-08-19T07:43:01.997Z,23.38
2018-08-19T07:45:30.433Z,23.19
2018-08-19T07:47:59.031Z,23.28
2018-08-19T07:50:28.245Z,23.24
2018-08-19T07:52:56.745Z,23.17
2018-08-19T07:55:26.429Z,23.24
2018-08-19T07:57:54.905Z,23.41
2018-08-19T08:00:27.548Z,23.45
2018-08-19T08:02:55.975Z,23.58
2018-08-19T08:05:26.879Z,23.61
2018-08-19T08:07:55.362Z,23.74
2018-08-19T08:10:23.901Z,24.01
2018-08-19T08:12:56.289Z,24.16
2018-08-19T08:15:24.800Z,24.18
2018-08-19T08:17:53.406Z,24.14
2018-08-19T08:20:21.914Z,24.33
2018-08-19T08:22:50.422Z,24.41
2018-08-19T08:25:18.917Z,24.52
2018-08-19T08:27:47.326Z,24.77
2018-08-19T08:30:15.882Z,24.97
2018-08-19T08:32:46.673Z,24.89
2018-08-19T08:35:15.173Z,25.40
2018-08-19T08:37:43.693Z,25.74
2018-08-19T08:40:12.694Z,26.43
2018-08-19T08:42:43.465Z,26.88
2018-08-19T08:45:13.265Z,27.72
2018-08-19T08:47:42.242Z,28.23
2018-08-19T08:50:12.267Z,28.61
2018-08-19T08:52:43.601Z,28.72
2018-08-19T08:55:13.017Z,28.34
2018-08-19T08:57:41.674Z,28.28
2018-08-19T09:00:11.453Z,27.96
2018-08-19T09:02:39.970Z,28.12
2018-08-19T09:05:10.648Z,28.14
2018-08-19T09:07:39.792Z,27.46
2018-08-19T09:10:08.541Z,27.49
2018-08-19T09:12:50.697Z,27.21
2018-08-19T09:15:19.310Z,27.31
2018-08-19T09:17:47.902Z,27.64
2018-08-19T09:20:16.389Z,27.93
2018-08-19T09:22:45.756Z,28.39
2018-08-19T09:25:14.310Z,28.32
2018-08-19T09:27:43.493Z,28.80
2018-08-19T09:30:47.661Z,29.16
2018-08-19T09:33:16.173Z,29.14
2018-08-19T09:35:44.949Z,29.14
2018-08-19T09:38:16.667Z,29.35
2018-08-19T09:40:45.564Z,29.35
2018-08-19T09:43:14.398Z,29.17
2018-08-19T09:45:43.273Z,29.40
2018-08-19T09:48:12.442Z,29.97
2018-08-19T09:50:41.565Z,30.49
2018-08-19T09:53:10.115Z,31.09
2018-08-19T09:55:39.626Z,31.01
2018-08-19T09:58:12.580Z,31.54
2018-08-19T10:00:46.350Z,31.82
2018-08-19T10:03:14.877Z,32.44
2018-08-19T10:05:43.442Z,32.27
2018-08-19T10:08:11.964Z,32.56
2018-08-19T10:10:40.450Z,33.66
2018-08-19T10:13:09.074Z,33.50
2018-08-19T10:15:38.010Z,33.26
2018-08-19T10:18:08.603Z,33.25
2018-08-19T10:20:37.119Z,33.19
2018-08-19T10:23:06.011Z,33.88
2018-08-19T10:25:34.617Z,34.03
2018-08-19T10:28:03.775Z,34.73
2018-08-19T10:30:32.282Z,34.92
2018-08-19T10:33:07.110Z,35.30
2018-08-19T10:35:35.874Z,35.15
2018-08-19T10:38:04.876Z,35.01
2018-08-19T10:40:33.413Z,35.35
2018-08-19T10:43:05.495Z,35.33
2018-08-19T10:45:37.103Z,35.47
2018-08-19T10:48:07.208Z,35.99
2018-08-19T10:50:35.711Z,36.25
2018-08-19T10:53:06.480Z,36.28
2018-08-19T10:55:35.046Z,35.93
2018-08-19T10:58:03.642Z,36.07
2018-08-19T11:00:32.798Z,36.98
2018-08-19T11:03:12.762Z,36.48
2018-08-19T11:05:42.794Z,37.14
2018-08-19T11:08:12.012Z,37.25
2018-08-19T11:10:40.545Z,38.28
2018-08-19T11:13:09.029Z,37.82
2018-08-19T11:15:49.413Z,38.10
2018-08-19T11:18:30.757Z,38.43
2018-08-19T11:21:02.462Z,39.19
2018-08-19T11:23:30.886Z,38.34
2018-08-19T11:25:59.517Z,39.06
2018-08-19T11:28:40.860Z,39.12
2018-08-19T11:31:20.652Z,39.33
2018-08-19T11:33:49.476Z,39.06
2018-08-19T11:36:18.170Z,39.40
2018-08-19T11:38:48.536Z,39.27
2018-08-19T11:41:17.722Z,39.65
2018-08-19T11:43:47.190Z,40.30
2018-08-19T11:46:15.677Z,40.84
2018-08-19T11:48:44.467Z,39.95
2018-08-19T11:51:13.257Z,40.02
2018-08-19T11:53:41.749Z,40.11
2018-08-19T11:56:10.337Z,40.66
2018-08-19T11:58:46.638Z,39.67
2018-08-19T12:01:18.477Z,40.77
2018-08-19T12:04:04.992Z,41.20
2018-08-19T12:06:34.117Z,41.87
2018-08-19T12:09:04.753Z,41.64
2018-08-19T12:11:38.789Z,40.89
2018-08-19T12:14:09.397Z,40.68
2018-08-19T12:16:45.212Z,41.10
2018-08-19T12:19:19.117Z,41.87
2018-08-19T12:22:05.725Z,42.33
2018-08-19T12:24:43.427Z,42.84
2018-08-19T12:27:13.379Z,43.03
2018-08-19T12:29:42.696Z,42.77
2018-08-19T12:32:15.852Z,43.43
2018-08-19T12:34:47.618Z,44.13
2018-08-19T12:37:17.293Z,44.54
2018-08-19T12:39:45.930Z,44.81
2018-08-19T12:42:14.517Z,43.83
2018-08-19T12:44:43.171Z,44.56
2018-08-19T12:47:14.833Z,43.43
2018-08-19T12:49:46.994Z,44.24
2018-08-19T12:52:17.977Z,44.75
2018-08-19T12:54:49.965Z,45.34
2018-08-19T12:57:18.598Z,45.59
2018-08-19T12:59:47.163Z,44.55
2018-08-19T13:02:15.633Z,45.35
2018-08-19T13:04:44.095Z,45.34
2018-08-19T13:07:14.130Z,45.04
2018-08-19T13:09:42.610Z,45.87
2018-08-19T13:12:12.553Z,46.08
2018-08-19T13:14:41.106Z,46.26
2018-08-19T13:17:09.659Z,45.15
2018-08-19T13:19:38.146Z,44.93
2018-08-19T13:22:06.594Z,45.62
2018-08-19T13:24:36.726Z,45.30
2018-08-19T13:27:06.037Z,46.02
2018-08-19T13:29:36.291Z,45.23
2018-08-19T13:32:04.917Z,45.57
2018-08-19T13:34:33.647Z,45.52
2018-08-19T13:37:02.150Z,46.04
2018-08-19T13:39:30.636Z,44.95
2018-08-19T13:41:59.108Z,45.52
2018-08-19T13:44:27.758Z,46.54
2018-08-19T13:46:56.234Z,46.63
2018-08-19T13:49:29.131Z,46.44
2018-08-19T13:52:02.173Z,45.69
2018-08-19T13:54:30.679Z,45.39
2018-08-19T13:57:00.294Z,46.48
2018-08-19T13:59:28.857Z,46.19
2018-08-19T14:01:57.391Z,46.23
2018-08-19T14:04:26.084Z,46.20
2018-08-19T14:06:54.554Z,44.81
2018-08-19T14:09:23.099Z,46.56
2018-08-19T14:11:51.612Z,47.42
2018-08-19T14:14:20.309Z,47.24
2018-08-19T14:16:48.994Z,45.52
2018-08-19T14:19:17.474Z,45.97
2018-08-19T14:21:46.018Z,45.68
2018-08-19T14:24:14.533Z,47.02
2018-08-19T14:26:43.287Z,45.55
2018-08-19T14:29:12.162Z,46.75
2018-08-19T14:31:40.925Z,47.15
2018-08-19T14:34:09.437Z,46.13
2018-08-19T14:36:37.897Z,46.87
2018-08-19T14:39:07.107Z,46.84
2018-08-19T14:41:35.678Z,47.96
2018-08-19T14:44:04.548Z,48.49
2018-08-19T14:46:33.939Z,48.96
2018-08-19T14:49:05.558Z,47.58
2018-08-19T14:51:50.198Z,48.47
2018-08-19T14:54:19.086Z,46.75
2018-08-19T14:56:47.658Z,45.62
2018-08-19T14:59:16.289Z,46.64
2018-08-19T15:01:45.601Z,46.83
2018-08-19T15:04:15.887Z,46.99
2018-08-19T15:06:45.339Z,45.05
2018-08-19T15:09:18.316Z,47.39
2018-08-19T15:11:47.644Z,48.45
2018-08-19T15:14:18.383Z,48.60
2018-08-19T15:16:49.151Z,48.77
2018-08-19T15:19:17.615Z,47.35
2018-08-19T15:21:52.977Z,49.14
2018-08-19T15:24:21.425Z,48.83
2018-08-19T15:26:49.904Z,48.36
2018-08-19T15:29:36.942Z,47.76
2018-08-19T15:32:05.753Z,47.04
2018-08-19T15:34:34.202Z,47.37
2018-08-19T15:37:02.691Z,47.68
2018-08-19T15:39:31.297Z,46.72
2018-08-19T15:41:59.809Z,46.88
2018-08-19T15:44:29.103Z,47.16
2018-08-19T15:46:57.908Z,47.78
2018-08-19T15:49:26.664Z,46.95
2018-08-19T15:51:55.281Z,46.02
2018-08-19T15:54:23.842Z,45.31
2018-08-19T15:56:52.405Z,44.13
2018-08-19T15:59:20.890Z,44.77
2018-08-19T16:01:49.487Z,44.40
2018-08-19T16:04:21.076Z,44.07
2018-08-19T16:06:53.440Z,44.23
2018-08-19T16:09:23.366Z,44.46
2018-08-19T16:11:52.448Z,45.28
2018-08-19T16:14:31.326Z,45.02
2018-08-19T16:17:03.681Z,44.62
2018-08-19T16:19:32.183Z,44.91
2018-08-19T16:22:01.178Z,46.01
2018-08-19T16:24:29.908Z,44.96
2018-08-19T16:26:58.555Z,44.91
2018-08-19T16:29:27.393Z,43.42
2018-08-19T16:31:56.138Z,44.20
2018-08-19T16:34:24.784Z,42.54
2018-08-19T16:36:53.401Z,41.96
2018-08-19T16:39:22.410Z,42.66
2018-08-19T16:41:50.873Z,42.18
2018-08-19T16:51:18.725Z,40.81
2018-08-19T16:53:47.254Z,41.22
2018-08-19T16:56:15.726Z,41.55
2018-08-19T16:58:44.221Z,42.03
2018-08-19T17:01:12.934Z,41.95
2018-08-19T17:03:41.874Z,41.97
2018-08-19T17:06:12.977Z,40.13
2018-08-19T17:08:42.003Z,37.04
2018-08-19T17:11:12.105Z,34.84
2018-08-19T17:13:40.901Z,33.45
2018-08-19T17:16:09.805Z,32.76
2018-08-19T17:18:38.330Z,32.08
2018-08-19T17:21:07.332Z,31.83
2018-08-19T17:23:36.081Z,31.64
2018-08-19T17:26:17.288Z,31.53
2018-08-19T17:28:45.700Z,31.42
2018-08-19T17:31:14.217Z,31.38
2018-08-19T17:33:42.790Z,31.07
2018-08-19T17:36:11.317Z,30.67
2018-08-19T17:38:39.778Z,30.50
2018-08-19T17:41:08.177Z,30.45
2018-08-19T17:43:41.538Z,30.27
2018-08-19T17:46:12.090Z,30.07
2018-08-19T17:48:41.664Z,29.87
2018-08-19T17:51:22.541Z,29.73
2018-08-19T17:53:51.437Z,29.66
2018-08-19T17:56:20.609Z,30.05
2018-08-19T17:58:49.922Z,30.18
2018-08-19T18:01:18.526Z,29.77
2018-08-19T18:03:47.085Z,29.71
2018-08-19T18:06:15.518Z,29.46
2018-08-19T18:08:47.893Z,29.20
2018-08-19T18:11:16.638Z,28.91
2018-08-19T18:13:45.185Z,28.71
2018-08-19T18:16:14.398Z,28.51
2018-08-19T18:18:42.937Z,28.33
2018-08-19T18:21:11.503Z,28.16
2018-08-19T18:23:43.437Z,28.00
2018-08-19T18:26:11.858Z,27.86
2018-08-19T18:28:42.133Z,27.75
2018-08-19T18:31:10.713Z,27.60
2018-08-19T18:33:45.389Z,27.40
2018-08-19T18:36:13.851Z,27.19
2018-08-19T18:38:42.310Z,27.07
2018-08-19T18:41:17.738Z,26.88
2018-08-19T18:43:46.777Z,26.70
2018-08-19T18:46:15.389Z,26.62
2018-08-19T18:48:44.314Z,26.61
2018-08-19T18:51:13.312Z,26.60
2018-08-19T18:53:41.821Z,26.48
2018-08-19T18:56:10.525Z,26.43
2018-08-19T18:58:41.135Z,26.34
2018-08-19T19:01:10.781Z,26.19
2018-08-19T19:03:39.554Z,26.06
2018-08-19T19:06:08.568Z,25.96
2018-08-19T19:08:37.030Z,25.91
2018-08-19T19:11:06.202Z,25.83
2018-08-19T19:13:35.845Z,25.72
2018-08-19T19:16:04.350Z,25.62
2018-08-19T19:18:32.810Z,25.55
2018-08-19T19:21:03.398Z,25.56
2018-08-19T19:23:33.737Z,25.72
2018-08-19T19:26:03.846Z,25.60
2018-08-19T19:28:32.701Z,25.49
2018-08-19T19:31:06.409Z,25.39
2018-08-19T19:33:35.717Z,25.36
2018-08-19T19:36:09.622Z,25.31
2018-08-19T19:38:45.342Z,25.29
2018-08-19T19:41:14.093Z,25.22
2018-08-19T19:43:42.782Z,25.08
2018-08-19T19:46:11.593Z,24.96
2018-08-19T19:48:40.061Z,24.82
2018-08-19T19:51:08.813Z,24.71
2018-08-19T19:53:37.327Z,24.61
2018-08-19T19:56:12.742Z,24.49
2018-08-19T19:58:42.355Z,24.44
2018-08-19T20:01:11.189Z,24.39
2018-08-19T20:03:44.123Z,24.31
2018-08-19T20:06:13.274Z,24.24
2018-08-19T20:08:41.996Z,24.17
2018-08-19T20:11:16.912Z,24.15
2018-08-19T20:13:45.338Z,24.07
2018-08-19T20:16:13.945Z,23.97
2018-08-19T20:18:42.455Z,23.99
2018-08-19T20:21:16.101Z,23.92
2018-08-19T20:23:44.888Z,23.87
2018-08-19T20:26:13.593Z,23.79
2018-08-19T20:28:42.274Z,23.73
2018-08-19T20:31:10.738Z,23.66
2018-08-19T20:33:39.331Z,23.62
2018-08-19T20:36:07.889Z,23.50
2018-08-19T20:38:36.530Z,23.46
2018-08-19T20:41:05.170Z,23.45
2018-08-19T20:43:33.786Z,23.38
2018-08-19T20:46:02.330Z,23.29
2018-08-19T20:48:30.780Z,23.22
2018-08-19T20:50:59.339Z,23.16
2018-08-19T20:53:28.453Z,23.12
2018-08-19T20:55:57.114Z,23.02
2018-08-19T20:58:27.195Z,22.97
2018-08-19T21:00:55.702Z,22.96
2018-08-19T21:03:24.289Z,22.90
2018-08-19T21:05:52.766Z,22.86
2018-08-19T21:08:21.321Z,22.79
2018-08-19T21:10:50.236Z,22.76
2018-08-19T21:13:19.987Z,22.73
2018-08-19T21:15:53.879Z,22.75
2018-08-19T21:18:22.326Z,22.76
2018-08-19T21:20:50.949Z,22.70
2018-08-19T21:23:19.454Z,22.64
2018-08-19T21:25:53.159Z,22.58
2018-08-19T21:28:21.804Z,22.62
2018-08-19T21:30:50.318Z,22.72
2018-08-19T21:33:18.793Z,22.94
2018-08-19T21:35:50.078Z,22.94
2018-08-19T21:38:18.663Z,23.04
2018-08-19T21:40:47.156Z,23.03
2018-08-19T21:43:15.677Z,22.95
2018-08-19T21:45:44.154Z,22.90
2018-08-19T21:48:15.129Z,22.76
2018-08-19T21:50:43.749Z,22.72
2018-08-19T21:53:15.430Z,22.59
2018-08-19T21:55:45.025Z,22.47
2018-08-19T21:58:13.554Z,22.35
2018-08-19T22:00:44.645Z,22.28
2018-08-19T22:03:21.377Z,22.18
2018-08-19T22:05:51.156Z,22.14
2018-08-19T22:08:19.734Z,22.09
2018-08-19T22:10:48.968Z,22.01
2018-08-19T22:13:17.474Z,21.98
2018-08-19T22:15:46.741Z,21.88
2018-08-19T22:18:23.129Z,21.81
2018-08-19T22:21:08.508Z,21.73
2018-08-19T22:23:42.364Z,21.66
2018-08-19T22:26:11.841Z,21.59
2018-08-19T22:28:40.773Z,21.60
2018-08-19T22:31:21.193Z,21.50
2018-08-19T22:33:54.893Z,21.40
2018-08-19T22:36:23.293Z,21.35
2018-08-19T22:38:52.713Z,21.29
2018-08-19T22:41:23.936Z,21.24
2018-08-19T22:43:53.358Z,21.24
2018-08-19T22:46:21.784Z,21.25
2018-08-19T22:48:52.096Z,21.19
2018-08-19T22:51:20.853Z,21.14
2018-08-19T22:53:54.890Z,21.09
2018-08-19T22:56:23.747Z,21.10
2018-08-19T22:58:52.353Z,21.02
2018-08-19T23:01:21.062Z,20.99
2018-08-19T23:03:53.972Z,20.92
2018-08-19T23:06:22.490Z,20.88
2018-08-19T23:08:50.961Z,20.86
2018-08-19T23:11:19.492Z,20.82
2018-08-19T23:13:59.097Z,20.79
2018-08-19T23:16:28.025Z,20.74
2018-08-19T23:18:56.641Z,20.65
2018-08-19T23:21:25.102Z,20.59
2018-08-19T23:23:53.619Z,20.48
2018-08-19T23:26:22.150Z,20.40
2018-08-19T23:28:50.671Z,20.36
2018-08-19T23:31:19.206Z,20.32
2018-08-19T23:33:47.706Z,20.31
2018-08-19T23:36:16.201Z,20.25
2018-08-19T23:38:44.622Z,20.21
2018-08-19T23:41:13.159Z,20.18
2018-08-19T23:43:41.598Z,20.18
2018-08-19T23:46:10.149Z,20.09
2018-08-19T23:48:38.573Z,20.00
2018-08-19T23:51:09.269Z,19.90
2018-08-19T23:53:37.806Z,19.88
2018-08-19T23:56:06.393Z,19.85
2018-08-19T23:58:34.847Z,19.82
